createdAt,value
2019-03-01T00:00:22.942Z,61.65
2019-03-01T00:02:54.949Z,63.15
2019-03-01T00:06:03.549Z,64.40
2019-03-01T00:09:07.124Z,68.15
2019-03-01T00:11:57.338Z,62.20
2019-03-01T00:14:56.238Z,62.58
2019-03-01T00:17:51.689Z,64.07
2019-03-01T00:20:55.434Z,67.62
2019-03-01T00:23:54.617Z,67.15
2019-03-01T00:26:38.056Z,56.98
2019-03-01T00:29:21.672Z,62.50
2019-03-01T00:32:30.029Z,66.33
2019-03-01T00:35:16.248Z,65.50
2019-03-01T00:38:20.105Z,63.35
2019-03-01T00:41:12.980Z,63.45
2019-03-01T00:44:11.710Z,60.98
2019-03-01T00:46:42.075Z,65.87
2019-03-01T00:49:12.459Z,66.28
2019-03-01T00:51:55.167Z,63.05
2019-03-01T00:54:25.532Z,61.90
2019-03-01T00:56:55.923Z,62.75
2019-03-01T00:59:26.284Z,65.50
2019-03-01T01:01:56.694Z,63.25
2019-03-01T01:04:27.052Z,66.40
2019-03-01T01:06:57.409Z,62.88
2019-03-01T01:09:27.799Z,60.20
2019-03-01T01:11:58.168Z,64.82
2019-03-01T01:14:28.551Z,54.73
2019-03-01T01:16:58.915Z,63.40
2019-03-01T01:19:29.301Z,61.48
2019-03-01T01:21:59.672Z,62.10
2019-03-01T01:24:30.059Z,57.55
2019-03-01T01:27:00.425Z,65.35
2019-03-01T01:29:30.807Z,62.30
2019-03-01T01:32:01.197Z,64.40
2019-03-01T01:34:31.551Z,63.13
2019-03-01T01:37:01.950Z,62.33
2019-03-01T01:39:32.393Z,65.35
2019-03-01T01:42:02.770Z,65.37
2019-03-01T01:44:33.149Z,64.80
2019-03-01T01:47:03.538Z,66.30
2019-03-01T01:49:33.903Z,65.03
2019-03-01T01:52:04.287Z,61.53
2019-03-01T01:54:35.890Z,59.85
2019-03-01T01:57:06.272Z,64.50
2019-03-01T01:59:36.630Z,65.50
2019-03-01T02:02:07.007Z,67.70
2019-03-01T02:04:37.367Z,59.18
2019-03-01T02:07:08.422Z,61.50
2019-03-01T02:09:39.683Z,63.95
2019-03-01T02:12:10.102Z,65.22
2019-03-01T02:14:40.471Z,65.65
2019-03-01T02:17:10.851Z,74.85
2019-03-01T02:19:41.209Z,65.08
2019-03-01T02:22:11.582Z,69.27
2019-03-01T02:24:41.951Z,61.53
2019-03-01T02:27:24.454Z,66.53
2019-03-01T02:29:54.813Z,65.47
2019-03-01T02:32:41.380Z,62.50
2019-03-01T02:35:14.743Z,66.92
2019-03-01T02:37:45.119Z,64.85
2019-03-01T02:40:20.696Z,63.65
2019-03-01T02:42:51.070Z,66.17
2019-03-01T02:45:25.171Z,61.70
2019-03-01T02:47:55.625Z,69.50
2019-03-01T02:50:25.982Z,67.03
2019-03-01T02:52:57.424Z,66.35
2019-03-01T02:55:27.776Z,70.37
2019-03-01T02:57:58.150Z,70.67
2019-03-01T03:00:30.618Z,65.05
2019-03-01T03:03:13.033Z,70.83
2019-03-01T03:08:49.448Z,69.95
2019-03-01T03:11:19.802Z,69.85
2019-03-01T03:13:50.195Z,65.32
2019-03-01T03:16:20.550Z,67.03
2019-03-01T03:18:50.927Z,74.72
2019-03-01T03:21:22.364Z,70.57
2019-03-01T03:23:52.731Z,74.53
2019-03-01T03:26:23.102Z,76.00
2019-03-01T03:28:53.472Z,68.55
2019-03-01T03:31:43.182Z,80.00
2019-03-01T03:34:13.554Z,75.57
2019-03-01T03:36:44.982Z,77.42
2019-03-01T03:39:15.352Z,71.95
2019-03-01T03:41:45.710Z,74.37
2019-03-01T03:44:16.097Z,78.60
2019-03-01T03:46:46.461Z,77.35
2019-03-01T03:49:16.823Z,76.07
2019-03-01T03:51:47.201Z,77.62
2019-03-01T03:54:17.577Z,85.32
2019-03-01T03:56:49.007Z,85.15
2019-03-01T03:59:19.466Z,82.85
2019-03-01T04:01:49.834Z,88.07
2019-03-01T04:04:20.203Z,82.60
2019-03-01T04:06:50.569Z,83.45
2019-03-01T04:09:20.957Z,82.25
2019-03-01T04:11:51.420Z,82.37
2019-03-01T04:14:21.795Z,86.75
2019-03-01T04:16:52.194Z,80.22
2019-03-01T04:19:22.597Z,76.72
2019-03-01T04:21:53.921Z,84.42
2019-03-01T04:24:24.299Z,81.02
2019-03-01T04:26:54.652Z,82.40
2019-03-01T04:29:25.040Z,84.30
2019-03-01T04:31:55.409Z,85.65
2019-03-01T04:34:25.800Z,85.03
2019-03-01T04:36:56.152Z,92.35
2019-03-01T04:39:26.526Z,85.42
2019-03-01T04:41:56.895Z,86.92
2019-03-01T04:44:27.282Z,87.22
2019-03-01T04:46:57.646Z,95.27
2019-03-01T04:49:28.023Z,99.45
2019-03-01T04:51:58.575Z,95.07
2019-03-01T04:54:28.959Z,96.72
2019-03-01T04:56:59.326Z,95.62
2019-03-01T04:59:29.713Z,98.78
2019-03-01T05:02:00.069Z,97.60
2019-03-01T05:04:30.456Z,108.05
2019-03-01T05:07:00.827Z,114.00
2019-03-01T05:09:31.216Z,105.40
2019-03-01T05:12:01.596Z,109.48
2019-03-01T05:14:31.957Z,109.92
2019-03-01T05:17:02.344Z,119.35
2019-03-01T05:19:32.699Z,117.67
2019-03-01T05:22:03.118Z,122.20
2019-03-01T05:24:33.473Z,118.05
2019-03-01T05:27:03.859Z,106.32
2019-03-01T05:29:34.231Z,116.80
2019-03-01T05:32:04.622Z,126.87
2019-03-01T05:34:34.992Z,122.00
2019-03-01T05:37:05.380Z,116.35
2019-03-01T05:39:35.749Z,119.28
2019-03-01T05:42:06.136Z,121.40
2019-03-01T05:44:36.503Z,120.45
2019-03-01T05:47:06.884Z,116.10
2019-03-01T05:49:37.248Z,125.90
2019-03-01T05:52:07.672Z,130.22
2019-03-01T05:54:38.049Z,130.18
2019-03-01T05:57:08.443Z,130.05
2019-03-01T05:59:38.812Z,129.27
2019-03-01T06:02:16.387Z,126.12
2019-03-01T06:04:59.401Z,137.32
2019-03-01T06:07:43.035Z,125.82
2019-03-01T06:10:44.682Z,118.70
2019-03-01T06:13:40.312Z,126.38
2019-03-01T06:16:23.839Z,130.12
2019-03-01T06:19:24.488Z,128.85
2019-03-01T06:22:35.604Z,126.27
2019-03-01T06:25:21.730Z,127.62
2019-03-01T06:28:02.504Z,124.87
2019-03-01T06:34:19.149Z,125.35
2019-03-01T06:36:54.127Z,125.70
2019-03-01T06:40:15.471Z,132.80
2019-03-01T06:43:07.252Z,134.25
2019-03-01T06:45:50.591Z,121.60
2019-03-01T06:48:25.302Z,127.02
2019-03-01T06:50:57.317Z,129.42
2019-03-01T06:53:28.685Z,130.12
2019-03-01T06:55:59.422Z,123.60
2019-03-01T06:58:29.817Z,127.38
2019-03-01T07:01:01.821Z,122.87
2019-03-01T07:03:32.213Z,136.05
2019-03-01T07:06:03.552Z,133.20
2019-03-01T07:08:34.158Z,126.53
2019-03-01T07:11:04.532Z,131.90
2019-03-01T07:13:34.919Z,121.55
2019-03-01T07:16:05.279Z,128.20
2019-03-01T07:18:35.672Z,129.63
2019-03-01T07:21:06.037Z,135.18
2019-03-01T07:23:37.161Z,136.03
2019-03-01T07:26:09.274Z,133.20
2019-03-01T07:28:39.641Z,154.45
2019-03-01T07:31:10.374Z,148.95
2019-03-01T07:33:40.762Z,130.78
2019-03-01T07:36:11.119Z,141.88
2019-03-01T07:38:41.507Z,140.70
2019-03-01T07:41:11.869Z,135.75
2019-03-01T07:43:42.267Z,133.15
2019-03-01T07:46:12.638Z,145.92
2019-03-01T07:48:43.019Z,141.62
2019-03-01T07:51:13.759Z,142.40
2019-03-01T07:53:44.142Z,142.85
2019-03-01T07:56:15.338Z,148.50
2019-03-01T07:58:45.742Z,150.45
2019-03-01T08:01:16.187Z,145.15
2019-03-01T08:03:51.599Z,154.50
2019-03-01T08:06:18.625Z,161.10
2019-03-01T08:08:49.020Z,149.95
2019-03-01T08:11:19.984Z,154.27
2019-03-01T08:13:54.237Z,144.05
2019-03-01T08:16:25.444Z,157.90
2019-03-01T08:18:55.890Z,147.78
2019-03-01T08:21:26.292Z,165.00
2019-03-01T08:23:56.671Z,146.93
2019-03-01T08:26:27.033Z,164.40
2019-03-01T08:28:58.577Z,152.30
2019-03-01T08:31:29.471Z,164.20
2019-03-01T08:33:59.855Z,167.32
2019-03-01T08:36:30.239Z,160.67
2019-03-01T08:39:04.449Z,156.47
2019-03-01T08:41:34.317Z,174.27
2019-03-01T08:44:04.937Z,190.07
2019-03-01T08:46:35.302Z,163.80
2019-03-01T08:49:06.700Z,176.72
2019-03-01T08:51:37.795Z,175.42
2019-03-01T08:54:08.177Z,173.65
2019-03-01T08:56:38.536Z,178.23
2019-03-01T08:59:08.920Z,177.27
2019-03-01T09:01:41.685Z,182.40
2019-03-01T09:04:17.653Z,197.95
2019-03-01T09:06:46.690Z,187.05
2019-03-01T09:09:17.746Z,177.27
2019-03-01T09:11:49.208Z,177.38
2019-03-01T09:14:22.785Z,174.75
2019-03-01T09:17:04.965Z,182.60
2019-03-01T09:19:35.399Z,202.80
2019-03-01T09:22:05.779Z,183.15
2019-03-01T09:24:36.172Z,171.02
2019-03-01T09:27:06.746Z,184.90
2019-03-01T09:29:41.426Z,169.70
2019-03-01T09:32:09.278Z,176.60
2019-03-01T09:34:39.685Z,189.30
2019-03-01T09:37:10.056Z,171.57
2019-03-01T09:39:40.472Z,176.27
2019-03-01T09:42:12.434Z,177.95
2019-03-01T09:44:42.919Z,180.67
2019-03-01T09:47:13.319Z,178.45
2019-03-01T09:50:03.695Z,197.40
2019-03-01T09:52:34.064Z,163.20
2019-03-01T09:55:06.753Z,168.65
2019-03-01T09:57:37.135Z,177.30
2019-03-01T10:00:17.469Z,185.93
2019-03-01T10:02:47.847Z,183.52
2019-03-01T10:05:18.247Z,189.10
2019-03-01T10:07:48.616Z,175.00
2019-03-01T10:10:22.896Z,181.32
2019-03-01T10:12:53.256Z,170.07
2019-03-01T10:15:23.731Z,184.22
2019-03-01T10:17:54.178Z,182.25
2019-03-01T10:20:26.078Z,180.67
2019-03-01T10:22:56.616Z,164.35
2019-03-01T10:25:27.307Z,181.15
2019-03-01T10:27:57.686Z,177.80
2019-03-01T10:30:29.284Z,176.15
2019-03-01T10:32:59.721Z,162.30
2019-03-01T10:35:30.112Z,170.87
2019-03-01T10:38:00.824Z,163.37
2019-03-01T10:40:31.204Z,171.55
2019-03-01T10:43:01.651Z,181.40
2019-03-01T10:45:32.829Z,170.75
2019-03-01T10:48:03.394Z,160.85
2019-03-01T10:50:33.796Z,178.87
2019-03-01T10:53:04.257Z,172.22
2019-03-01T10:55:34.631Z,156.50
2019-03-01T10:58:08.011Z,152.95
2019-03-01T11:00:38.415Z,157.18
2019-03-01T11:03:08.948Z,151.57
2019-03-01T11:05:39.329Z,149.50
2019-03-01T11:08:09.704Z,144.55
2019-03-01T11:10:59.460Z,143.22
2019-03-01T11:13:29.835Z,136.07
2019-03-01T11:16:00.262Z,131.03
2019-03-01T11:18:30.630Z,162.12
2019-03-01T11:21:01.040Z,151.87
2019-03-01T11:23:31.416Z,145.07
2019-03-01T11:26:01.827Z,143.90
2019-03-01T11:28:32.202Z,156.37
2019-03-01T11:31:02.611Z,150.55
2019-03-01T11:33:32.999Z,153.97
2019-03-01T11:36:03.599Z,155.32
2019-03-01T11:38:33.977Z,137.28
2019-03-01T11:41:04.436Z,141.82
2019-03-01T11:43:34.803Z,144.13
2019-03-01T11:46:05.668Z,139.35
2019-03-01T11:48:36.132Z,128.40
2019-03-01T11:51:06.535Z,126.45
2019-03-01T11:53:36.912Z,123.30
2019-03-01T11:56:07.295Z,120.97
2019-03-01T11:58:37.677Z,119.17
2019-03-01T12:01:28.880Z,126.05
2019-03-01T12:04:02.834Z,119.20
2019-03-01T12:06:38.741Z,125.53
2019-03-01T12:09:20.223Z,114.25
2019-03-01T12:14:51.596Z,126.95
2019-03-01T12:42:38.817Z,131.65
2019-03-01T12:45:15.733Z,130.90
2019-03-01T12:47:46.116Z,139.75
2019-03-01T12:50:16.560Z,122.58
2019-03-01T12:52:59.250Z,115.40
2019-03-01T12:55:31.083Z,123.02
2019-03-01T12:58:01.491Z,132.67
2019-03-01T13:00:40.959Z,125.05
2019-03-01T13:03:11.356Z,121.25
2019-03-01T13:05:41.880Z,110.97
2019-03-01T13:08:12.608Z,103.70
2019-03-01T13:10:46.112Z,112.75
2019-03-01T13:13:16.658Z,111.97
2019-03-01T13:15:49.539Z,95.72
2019-03-01T13:18:19.189Z,103.80
2019-03-01T13:20:49.572Z,102.60
2019-03-01T13:23:19.979Z,100.02
2019-03-01T13:25:50.519Z,93.97
2019-03-01T13:28:20.918Z,91.50
2019-03-01T13:30:51.293Z,77.55
2019-03-01T13:33:21.689Z,81.78
2019-03-01T13:35:52.062Z,78.17
2019-03-01T13:38:22.460Z,80.83
2019-03-01T13:40:54.206Z,79.27
2019-03-01T13:43:27.367Z,63.45
2019-03-01T13:45:56.864Z,57.08
2019-03-01T13:48:27.267Z,56.18
2019-03-01T13:50:57.658Z,52.17
2019-03-01T13:53:30.282Z,46.80
2019-03-01T13:56:01.179Z,39.80
2019-03-01T13:58:32.928Z,42.40
2019-03-01T14:01:04.546Z,43.15
2019-03-01T14:03:34.963Z,36.20
2019-03-01T14:06:05.363Z,38.15
2019-03-01T14:08:37.452Z,34.40
2019-03-01T14:11:08.002Z,33.25
2019-03-01T14:13:38.413Z,36.08
2019-03-01T14:16:08.787Z,35.48
2019-03-01T14:18:39.195Z,33.83
2019-03-01T14:21:09.565Z,27.90
2019-03-01T14:23:39.960Z,31.73
2019-03-01T14:26:10.334Z,34.38
2019-03-01T14:31:43.015Z,30.40
2019-03-01T14:34:47.736Z,30.95
2019-03-01T15:33:08.501Z,25.70
2019-03-01T15:35:39.766Z,27.82
2019-03-01T15:38:11.053Z,25.72
2019-03-01T15:40:41.448Z,22.30
2019-03-01T15:43:11.834Z,19.52
2019-03-01T15:45:42.231Z,26.48
2019-03-01T15:48:12.614Z,23.98
2019-03-01T15:50:43.011Z,22.00
2019-03-01T15:53:14.510Z,23.07
2019-03-01T15:55:44.866Z,19.82
2019-03-01T15:58:15.249Z,19.98
2019-03-01T16:00:45.646Z,19.05
2019-03-01T16:03:16.097Z,18.60
2019-03-01T16:05:46.678Z,19.75
2019-03-01T16:08:17.041Z,19.23
2019-03-01T16:10:47.617Z,15.98
2019-03-01T16:13:17.971Z,15.43
2019-03-01T16:15:48.379Z,13.60
2019-03-01T16:18:18.733Z,16.10
2019-03-01T16:20:49.141Z,13.08
2019-03-01T16:23:19.493Z,14.47
2019-03-01T16:25:53.047Z,11.28
2019-03-01T16:28:22.670Z,12.75
2019-03-01T16:30:56.776Z,10.20
2019-03-01T16:33:26.363Z,13.68
2019-03-01T16:35:57.599Z,13.25
2019-03-01T16:38:28.067Z,15.00
2019-03-01T16:41:01.879Z,9.68
2019-03-01T16:43:30.649Z,11.55
2019-03-01T16:46:01.147Z,10.98
2019-03-01T16:48:31.852Z,14.18
2019-03-01T16:51:02.334Z,15.23
2019-03-01T16:53:33.254Z,14.70
2019-03-01T16:56:03.737Z,12.73
2019-03-01T16:58:36.733Z,16.15
2019-03-01T17:01:07.134Z,13.32
2019-03-01T17:03:37.591Z,11.00
2019-03-01T17:06:10.515Z,11.05
2019-03-01T17:08:40.512Z,11.68
2019-03-01T17:11:11.085Z,13.18
2019-03-01T17:13:53.544Z,11.97
2019-03-01T17:16:24.598Z,13.85
2019-03-01T17:18:55.067Z,14.05
2019-03-01T17:21:25.569Z,13.55
2019-03-01T17:23:55.941Z,12.78
2019-03-01T17:26:32.726Z,14.28
2019-03-01T17:29:08.041Z,14.95
2019-03-01T17:34:43.329Z,10.48
2019-03-01T17:43:02.139Z,12.93
2019-03-01T18:09:39.451Z,12.93
2019-03-01T18:12:09.820Z,13.45
2019-03-01T18:14:40.224Z,12.18
2019-03-01T18:17:10.605Z,10.90
2019-03-01T18:19:41.008Z,21.75
2019-03-01T18:22:26.414Z,15.98
2019-03-01T18:24:56.306Z,11.18
2019-03-01T18:27:27.858Z,14.75
2019-03-01T18:29:58.224Z,9.48
2019-03-01T18:32:28.621Z,9.63
2019-03-01T18:34:58.999Z,12.03
2019-03-01T18:37:29.386Z,16.70
2019-03-01T18:39:59.808Z,14.80
2019-03-01T18:42:30.269Z,13.13
2019-03-01T18:45:03.586Z,11.03
2019-03-01T18:47:33.789Z,11.53
2019-03-01T18:50:07.431Z,12.93
2019-03-01T18:52:37.853Z,12.35
2019-03-01T18:55:13.711Z,12.07
2019-03-01T18:57:43.109Z,14.35
2019-03-01T19:00:20.554Z,12.45
2019-03-01T19:02:51.386Z,18.55
2019-03-01T19:05:21.900Z,11.18
2019-03-01T19:07:52.462Z,13.62
2019-03-01T19:10:27.567Z,11.97
2019-03-01T19:12:57.722Z,17.60
2019-03-01T19:15:28.384Z,10.70
2019-03-01T19:17:58.791Z,16.25
2019-03-01T19:20:38.008Z,13.45
2019-03-01T19:23:08.077Z,15.15
2019-03-01T19:25:38.503Z,12.88
2019-03-01T19:28:09.886Z,14.28
2019-03-01T19:30:40.264Z,12.70
2019-03-01T19:33:10.648Z,12.93
2019-03-01T19:35:41.080Z,18.15
2019-03-01T19:38:12.609Z,15.35
2019-03-01T19:40:43.460Z,14.60
2019-03-01T19:43:15.052Z,14.15
2019-03-01T19:45:47.040Z,13.32
2019-03-01T19:48:17.456Z,13.08
2019-03-01T19:50:47.851Z,14.40
2019-03-01T19:53:21.648Z,17.77
2019-03-01T19:55:52.125Z,17.10
2019-03-01T19:58:22.700Z,13.90
2019-03-01T20:00:54.116Z,14.45
2019-03-01T20:06:19.412Z,16.45
2019-03-01T20:08:49.805Z,10.48
2019-03-01T20:11:23.398Z,13.00
2019-03-01T20:13:53.716Z,11.63
2019-03-01T20:16:24.371Z,10.95
2019-03-01T20:18:54.766Z,20.30
2019-03-01T20:21:25.129Z,13.10
2019-03-01T20:23:55.518Z,14.25
2019-03-01T20:26:26.869Z,11.48
2019-03-01T20:28:57.926Z,14.80
2019-03-01T20:31:28.520Z,14.85
2019-03-01T20:34:01.825Z,12.95
2019-03-01T20:36:30.978Z,14.63
2019-03-01T20:39:01.353Z,14.07
2019-03-01T20:41:52.753Z,15.95
2019-03-01T20:44:23.117Z,13.22
2019-03-01T20:46:54.011Z,16.55
2019-03-01T20:49:24.541Z,12.20
2019-03-01T20:51:54.948Z,14.90
2019-03-01T20:54:25.907Z,17.45
2019-03-01T20:56:57.703Z,11.43
2019-03-01T20:59:28.180Z,15.13
2019-03-01T21:01:58.750Z,12.85
2019-03-01T21:04:29.139Z,13.38
2019-03-01T21:06:59.682Z,13.32
2019-03-01T21:09:30.048Z,18.05
2019-03-01T21:12:01.098Z,14.13
2019-03-01T21:14:32.288Z,12.00
2019-03-01T21:17:02.647Z,10.82
2019-03-01T21:19:33.053Z,13.65
2019-03-01T21:22:04.783Z,12.15
2019-03-01T21:24:35.494Z,12.90
2019-03-01T21:27:06.073Z,15.80
2019-03-01T21:29:36.432Z,17.90
2019-03-01T21:32:06.786Z,11.25
2019-03-01T21:34:38.409Z,18.42
2019-03-01T21:37:09.225Z,17.07
2019-03-01T21:39:39.617Z,11.45
2019-03-01T21:42:09.965Z,17.27
2019-03-01T21:44:42.582Z,15.98
2019-03-01T21:47:13.653Z,14.30
2019-03-01T21:49:45.250Z,17.70
2019-03-01T21:52:15.625Z,11.45
2019-03-01T21:54:48.665Z,16.80
2019-03-01T21:57:18.054Z,13.32
2019-03-01T21:59:49.667Z,15.45
2019-03-01T22:02:20.486Z,12.80
2019-03-01T22:04:50.848Z,16.05
2019-03-01T22:07:22.432Z,16.57
2019-03-01T22:09:52.779Z,15.23
2019-03-01T22:12:24.684Z,14.07
2019-03-01T22:14:55.210Z,17.98
2019-03-01T22:17:25.617Z,16.75
2019-03-01T22:19:55.977Z,15.40
2019-03-01T22:22:26.357Z,13.22
2019-03-01T22:24:58.644Z,15.50
2019-03-01T22:27:28.785Z,12.68
2019-03-01T22:29:59.152Z,16.05
2019-03-01T22:32:29.538Z,13.00
2019-03-01T22:35:03.165Z,15.70
2019-03-01T22:37:31.976Z,14.83
2019-03-01T22:40:02.341Z,12.53
2019-03-01T22:42:32.889Z,17.12
2019-03-01T22:45:03.617Z,17.62
2019-03-01T22:47:36.065Z,14.38
2019-03-01T22:50:13.568Z,13.65
2019-03-01T22:52:44.084Z,11.10
2019-03-01T22:55:17.513Z,15.20
2019-03-01T22:57:47.889Z,14.70
2019-03-01T23:00:50.166Z,16.30
2019-03-01T23:03:22.222Z,15.80
2019-03-01T23:05:52.709Z,12.03
2019-03-01T23:08:24.120Z,11.43
2019-03-01T23:10:57.890Z,12.80
2019-03-01T23:13:28.205Z,16.82
2019-03-01T23:15:58.794Z,12.55
2019-03-01T23:18:29.197Z,16.50
2019-03-01T23:21:01.084Z,18.35
2019-03-01T23:23:31.639Z,22.27
2019-03-01T23:26:02.006Z,12.33
2019-03-01T23:28:32.382Z,17.60
2019-03-01T23:31:03.690Z,14.28
2019-03-01T23:33:34.774Z,14.60
2019-03-01T23:36:05.197Z,13.03
2019-03-01T23:38:35.579Z,12.45
2019-03-01T23:41:07.814Z,11.48
2019-03-01T23:43:38.009Z,18.82
2019-03-01T23:46:08.372Z,16.52
2019-03-01T23:49:05.991Z,18.57
2019-03-01T23:51:30.145Z,12.50
2019-03-01T23:54:00.529Z,14.87
2019-03-01T23:56:30.894Z,12.70
2019-03-01T23:59:01.273Z,18.45
